createdAt,value
2022-11-03T00:01:09.297Z,100324.63
2022-11-03T00:03:11.810Z,100328.88
2022-11-03T00:05:32.440Z,100321.88
2022-11-03T00:07:34.674Z,100326.41
2022-11-03T00:09:39.352Z,100328.66
2022-11-03T00:11:45.411Z,100322.75
2022-11-03T00:13:47.395Z,100328.09
2022-11-03T00:15:50.226Z,100322.59
2022-11-03T00:17:52.442Z,100321.06
2022-11-03T00:19:54.563Z,100321.94
2022-11-03T00:21:59.581Z,100315.69
2022-11-03T00:24:05.261Z,100316.66
2022-11-03T00:26:16.860Z,100318.75
2022-11-03T00:28:18.882Z,100314.09
2022-11-03T00:30:21.067Z,100309.56
2022-11-03T00:32:23.220Z,100312.94
2022-11-03T00:34:25.335Z,100314.69
2022-11-03T00:36:34.739Z,100319.38
2022-11-03T00:38:37.978Z,100315.84
2022-11-03T00:41:17.529Z,100316.72
2022-11-03T00:43:39.478Z,100307.72
2022-11-03T00:45:41.912Z,100304.97
2022-11-03T00:48:03.960Z,100305.00
2022-11-03T00:50:06.391Z,100323.72
2022-11-03T00:52:08.515Z,100312.78
2022-11-03T00:54:10.491Z,100295.00
2022-11-03T00:56:24.896Z,100293.59
2022-11-03T00:58:26.989Z,100302.91
2022-11-03T01:00:49.120Z,100304.00
2022-11-03T01:02:51.602Z,100313.91
2022-11-03T01:05:12.252Z,100315.69
2022-11-03T01:07:14.193Z,100317.47
2022-11-03T01:09:23.084Z,100322.38
2022-11-03T01:11:43.719Z,100325.66
2022-11-03T01:13:46.923Z,100323.97
2022-11-03T01:15:49.028Z,100323.09
2022-11-03T01:17:51.207Z,100326.69
2022-11-03T01:19:53.683Z,100331.75
2022-11-03T01:21:55.958Z,100338.84
2022-11-03T01:24:02.162Z,100336.22
2022-11-03T01:26:06.374Z,100328.00
2022-11-03T01:28:08.440Z,100340.38
2022-11-03T01:30:13.595Z,100340.47
2022-11-03T01:32:19.031Z,100336.00
2022-11-03T01:34:22.449Z,100337.69
2022-11-03T01:36:25.286Z,100335.88
2022-11-03T01:38:31.396Z,100344.00
2022-11-03T01:40:33.704Z,100341.28
2022-11-03T01:42:35.787Z,100333.91
2022-11-03T01:44:43.715Z,100331.19
2022-11-03T01:47:02.777Z,100339.59
2022-11-03T01:49:11.739Z,100338.59
2022-11-03T01:51:17.055Z,100331.34
2022-11-03T01:53:20.082Z,100334.78
2022-11-03T01:55:30.014Z,100334.88
2022-11-03T01:57:41.507Z,100336.75
2022-11-03T01:59:45.072Z,100338.34
2022-11-03T02:01:49.043Z,100331.25
2022-11-03T02:04:08.524Z,100331.47
2022-11-03T02:06:11.760Z,100338.50
2022-11-03T02:08:26.018Z,100339.53
2022-11-03T02:10:28.201Z,100344.78
2022-11-03T02:12:32.228Z,100344.00
2022-11-03T02:14:58.619Z,100337.09
2022-11-03T02:17:05.913Z,100336.09
2022-11-03T02:19:20.126Z,100340.38
2022-11-03T02:21:29.018Z,100336.00
2022-11-03T02:23:44.479Z,100330.66
2022-11-03T02:25:55.156Z,100328.09
2022-11-03T02:27:57.596Z,100324.22
2022-11-03T02:30:00.342Z,100320.84
2022-11-03T02:32:12.263Z,100321.94
2022-11-03T02:34:23.625Z,100324.44
2022-11-03T02:36:36.801Z,100318.28
2022-11-03T02:38:50.549Z,100324.78
2022-11-03T02:40:55.962Z,100327.19
2022-11-03T02:42:59.545Z,100325.25
2022-11-03T02:45:05.699Z,100322.88
2022-11-03T02:47:14.390Z,100322.59
2022-11-03T02:49:16.791Z,100327.09
2022-11-03T02:51:21.104Z,100319.03
2022-11-03T02:53:23.455Z,100323.72
2022-11-03T02:55:57.463Z,100318.56
2022-11-03T02:58:15.485Z,100318.16
2022-11-03T03:00:18.418Z,100323.09
2022-11-03T03:02:32.872Z,100320.78
2022-11-03T03:04:43.396Z,100324.94
2022-11-03T03:06:58.172Z,100330.41
2022-11-03T03:09:06.002Z,100325.59
2022-11-03T03:11:11.725Z,100326.53
2022-11-03T03:13:17.339Z,100331.28
2022-11-03T03:15:23.988Z,100331.50
2022-11-03T03:17:40.601Z,100332.19
2022-11-03T03:20:03.801Z,100333.91
2022-11-03T03:22:16.347Z,100333.25
2022-11-03T03:24:33.726Z,100323.44
2022-11-03T03:26:45.037Z,100339.41
2022-11-03T03:28:55.613Z,100331.28
2022-11-03T03:31:01.258Z,100331.06
2022-11-03T03:33:08.069Z,100333.06
2022-11-03T03:35:13.969Z,100342.19
2022-11-03T03:37:17.670Z,100334.75
2022-11-03T03:39:23.762Z,100336.63
2022-11-03T03:41:28.752Z,100338.19
2022-11-03T03:43:33.384Z,100339.47
2022-11-03T03:45:37.136Z,100338.53
2022-11-03T03:47:39.567Z,100345.97
2022-11-03T03:49:41.640Z,100347.84
2022-11-03T03:51:46.175Z,100344.03
2022-11-03T03:53:54.914Z,100346.78
2022-11-03T03:55:58.534Z,100347.41
2022-11-03T03:58:00.803Z,100346.63
2022-11-03T04:00:03.435Z,100350.16
2022-11-03T04:02:15.119Z,100341.44
2022-11-03T04:04:17.488Z,100338.66
2022-11-03T04:06:19.791Z,100333.41
2022-11-03T04:08:22.266Z,100336.97
2022-11-03T04:10:25.071Z,100340.22
2022-11-03T04:12:45.552Z,100335.09
2022-11-03T04:15:06.298Z,100344.94
2022-11-03T04:17:39.163Z,100338.13
2022-11-03T04:20:05.696Z,100336.09
2022-11-03T04:22:17.524Z,100335.22
2022-11-03T04:24:19.499Z,100336.16
2022-11-03T04:26:23.286Z,100338.88
2022-11-03T04:28:26.215Z,100340.91
2022-11-03T04:30:28.326Z,100343.47
2022-11-03T04:32:30.742Z,100336.44
2022-11-03T04:34:33.126Z,100340.69
2022-11-03T04:36:35.236Z,100331.03
2022-11-03T04:38:38.234Z,100331.84
2022-11-03T04:40:50.582Z,100337.47
2022-11-03T04:42:56.268Z,100337.25
2022-11-03T04:45:02.930Z,100338.13
2022-11-03T04:47:13.135Z,100342.72
2022-11-03T04:49:23.643Z,100347.41
2022-11-03T04:51:30.330Z,100346.44
2022-11-03T04:53:33.764Z,100343.94
2022-11-03T04:55:35.755Z,100344.75
2022-11-03T04:57:37.895Z,100346.44
2022-11-03T04:59:41.656Z,100343.25
2022-11-03T05:01:46.052Z,100340.50
2022-11-03T05:03:50.565Z,100335.16
2022-11-03T05:05:52.960Z,100337.78
2022-11-03T05:07:58.580Z,100338.94
2022-11-03T05:10:01.438Z,100340.66
2022-11-03T05:12:03.996Z,100339.72
2022-11-03T05:14:25.013Z,100350.00
2022-11-03T05:16:27.118Z,100347.06
2022-11-03T05:18:35.584Z,100344.34
2022-11-03T05:20:44.581Z,100345.16
2022-11-03T05:22:46.585Z,100348.75
2022-11-03T05:24:56.484Z,100345.16
2022-11-03T05:27:00.232Z,100346.06
2022-11-03T05:29:09.712Z,100355.44
2022-11-03T05:31:30.322Z,100354.50
2022-11-03T05:33:35.687Z,100361.72
2022-11-03T05:35:37.954Z,100358.00
2022-11-03T05:37:42.633Z,100359.91
2022-11-03T05:39:48.595Z,100361.84
2022-11-03T05:41:52.543Z,100358.91
2022-11-03T05:44:37.229Z,100367.88
2022-11-03T05:46:39.274Z,100366.06
2022-11-03T05:48:45.709Z,100370.59
2022-11-03T05:50:47.768Z,100374.03
2022-11-03T05:52:53.385Z,100380.41
2022-11-03T05:54:58.743Z,100381.34
2022-11-03T05:57:01.876Z,100381.34
2022-11-03T05:59:05.175Z,100381.22
2022-11-03T06:01:16.488Z,100386.88
2022-11-03T06:03:27.903Z,100386.69
2022-11-03T06:05:32.044Z,100384.66
2022-11-03T06:07:34.618Z,100389.06
2022-11-03T06:09:36.473Z,100389.22
2022-11-03T06:11:38.349Z,100389.06
2022-11-03T06:13:40.248Z,100396.22
2022-11-03T06:15:44.340Z,100399.03
2022-11-03T06:17:46.295Z,100404.63
2022-11-03T06:19:50.763Z,100409.31
2022-11-03T06:21:55.992Z,100407.34
2022-11-03T06:23:59.511Z,100406.28
2022-11-03T06:26:08.543Z,100411.72
2022-11-03T06:28:19.030Z,100416.09
2022-11-03T06:30:30.358Z,100420.91
2022-11-03T06:32:33.690Z,100425.94
2022-11-03T06:35:02.048Z,100419.66
2022-11-03T06:37:45.816Z,100422.41
2022-11-03T06:39:58.529Z,100430.53
2022-11-03T06:42:11.547Z,100433.44
2022-11-03T06:44:24.208Z,100431.31
2022-11-03T06:46:26.925Z,100430.06
2022-11-03T06:48:30.193Z,100433.75
2022-11-03T06:50:33.479Z,100437.28
2022-11-03T06:52:40.010Z,100441.00
2022-11-03T06:54:42.339Z,100435.44
2022-11-03T06:56:44.745Z,100436.59
2022-11-03T06:58:51.351Z,100431.03
2022-11-03T07:00:57.734Z,100432.00
2022-11-03T07:03:37.621Z,100439.44
2022-11-03T07:05:40.463Z,100439.09
2022-11-03T07:07:42.497Z,100438.97
2022-11-03T07:09:45.042Z,100432.72
2022-11-03T07:11:53.697Z,100444.38
2022-11-03T07:14:22.676Z,100437.41
2022-11-03T07:16:32.309Z,100429.56
2022-11-03T07:18:42.975Z,100435.97
2022-11-03T07:20:45.507Z,100426.94
2022-11-03T07:22:48.803Z,100431.38
2022-11-03T07:24:54.784Z,100427.94
2022-11-03T07:27:20.001Z,100432.91
2022-11-03T07:29:26.646Z,100426.69
2022-11-03T07:31:28.776Z,100429.38
2022-11-03T07:33:32.432Z,100432.72
2022-11-03T07:36:13.261Z,100429.06
2022-11-03T07:38:11.402Z,100427.31
2022-11-03T07:40:23.839Z,100427.13
2022-11-03T07:45:59.480Z,100426.84
2022-11-03T07:48:20.082Z,100425.97
2022-11-03T07:50:22.144Z,100429.03
2022-11-03T07:52:27.227Z,100427.00
2022-11-03T07:54:33.151Z,100432.69
2022-11-03T07:56:48.707Z,100421.03
2022-11-03T07:59:00.729Z,100424.47
2022-11-03T08:04:56.977Z,100411.69
2022-11-03T08:06:59.024Z,100405.94
2022-11-03T08:09:01.272Z,100397.59
2022-11-03T08:11:03.383Z,100403.69
2022-11-03T08:13:06.027Z,100402.81
2022-11-03T08:15:08.870Z,100402.66
2022-11-03T08:17:10.736Z,100406.31
2022-11-03T08:19:12.858Z,100399.78
2022-11-03T08:21:15.226Z,100396.78
2022-11-03T08:23:25.619Z,100402.19
2022-11-03T08:25:28.154Z,100391.59
2022-11-03T08:27:30.295Z,100399.56
2022-11-03T08:29:32.668Z,100395.75
2022-11-03T08:31:34.707Z,100392.03
2022-11-03T08:33:36.850Z,100396.50
2022-11-03T08:35:39.253Z,100404.34
2022-11-03T08:37:41.349Z,100399.00
2022-11-03T08:39:43.506Z,100401.47
2022-11-03T08:41:45.908Z,100396.88
2022-11-03T08:43:48.561Z,100388.75
2022-11-03T08:45:54.112Z,100386.56
2022-11-03T08:47:57.113Z,100378.31
2022-11-03T08:50:00.174Z,100380.78
2022-11-03T08:52:02.300Z,100379.75
2022-11-03T08:54:04.737Z,100382.91
2022-11-03T08:56:12.521Z,100383.72
2022-11-03T08:58:16.409Z,100376.22
2022-11-03T09:00:18.906Z,100380.69
2022-11-03T09:02:21.124Z,100381.88
2022-11-03T09:04:23.413Z,100380.53
2022-11-03T09:06:25.727Z,100380.16
2022-11-03T09:10:49.849Z,100380.41
2022-11-03T09:12:52.026Z,100378.91
2022-11-03T09:14:54.325Z,100380.66
2022-11-03T09:16:56.590Z,100376.91
2022-11-03T09:18:58.708Z,100375.00
2022-11-03T09:21:00.940Z,100384.00
2022-11-03T09:23:03.053Z,100385.03
2022-11-03T09:25:06.189Z,100371.41
2022-11-03T09:27:08.015Z,100380.47
2022-11-03T09:29:09.982Z,100369.63
2022-11-03T09:31:12.154Z,100367.94
2022-11-03T09:33:17.015Z,100371.56
2022-11-03T09:35:19.655Z,100365.41
2022-11-03T09:37:23.166Z,100358.88
2022-11-03T09:39:25.656Z,100363.31
2022-11-03T09:41:45.904Z,100355.34
2022-11-03T09:43:51.059Z,100351.44
2022-11-03T09:45:54.439Z,100357.66
2022-11-03T09:47:56.776Z,100351.25
2022-11-03T09:49:59.854Z,100351.28
2022-11-03T09:52:04.431Z,100356.88
2022-11-03T09:54:06.750Z,100344.06
2022-11-03T09:56:11.096Z,100345.84
2022-11-03T09:58:15.377Z,100333.22
2022-11-03T10:00:20.945Z,100339.41
2022-11-03T10:02:26.263Z,100334.91
2022-11-03T10:04:30.173Z,100335.44
2022-11-03T10:06:32.378Z,100328.81
2022-11-03T10:08:39.382Z,100323.16
2022-11-03T10:10:41.759Z,100318.28
2022-11-03T10:12:44.837Z,100318.75
2022-11-03T10:14:47.613Z,100318.81
2022-11-03T10:16:55.877Z,100322.28
2022-11-03T10:18:58.316Z,100315.63
2022-11-03T10:21:13.162Z,100311.09
2022-11-03T10:23:15.201Z,100312.75
2022-11-03T10:25:36.486Z,100309.97
2022-11-03T10:27:38.493Z,100306.91
2022-11-03T10:29:42.380Z,100312.50
2022-11-03T10:31:52.478Z,100307.97
2022-11-03T10:33:56.267Z,100305.00
2022-11-03T10:36:05.602Z,100306.75
2022-11-03T10:38:27.908Z,100305.88
2022-11-03T10:40:52.788Z,100303.84
2022-11-03T10:43:01.072Z,100295.22
2022-11-03T10:45:18.098Z,100292.69
2022-11-03T10:47:32.399Z,100288.28
2022-11-03T10:49:42.505Z,100285.84
2022-11-03T10:51:49.687Z,100284.28
2022-11-03T10:53:51.937Z,100281.22
2022-11-03T10:55:55.807Z,100283.75
2022-11-03T10:57:58.811Z,100276.56
2022-11-03T11:00:01.473Z,100276.41
2022-11-03T11:02:10.095Z,100275.34
2022-11-03T11:04:16.957Z,100274.31
2022-11-03T11:06:26.668Z,100275.19
2022-11-03T11:08:28.815Z,100271.16
2022-11-03T11:10:31.748Z,100274.69
2022-11-03T11:12:34.256Z,100271.72
2022-11-03T11:14:39.674Z,100268.91
2022-11-03T11:16:59.374Z,100264.75
2022-11-03T11:19:02.266Z,100267.22
2022-11-03T11:21:16.250Z,100258.44
2022-11-03T11:23:27.207Z,100249.25
2022-11-03T11:26:07.760Z,100250.41
2022-11-03T11:28:19.704Z,100248.44
2022-11-03T11:30:21.729Z,100247.09
2022-11-03T11:32:42.432Z,100240.03
2022-11-03T11:34:44.487Z,100233.25
2022-11-03T11:36:47.548Z,100235.88
2022-11-03T11:38:49.585Z,100237.63
2022-11-03T11:40:52.054Z,100225.78
2022-11-03T11:43:03.458Z,100216.75
2022-11-03T11:45:05.990Z,100215.53
2022-11-03T11:47:45.845Z,100220.28
2022-11-03T11:49:48.508Z,100229.81
2022-11-03T11:51:51.459Z,100217.38
2022-11-03T11:54:16.202Z,100215.59
2022-11-03T11:56:42.943Z,100214.13
2022-11-03T11:58:52.052Z,100206.50
2022-11-03T12:01:01.470Z,100208.34
2022-11-03T12:03:07.072Z,100208.06
2022-11-03T12:05:19.817Z,100210.16
2022-11-03T12:07:37.692Z,100198.22
2022-11-03T12:09:40.483Z,100194.47
2022-11-03T12:11:55.375Z,100199.28
2022-11-03T12:13:58.195Z,100192.53
2022-11-03T12:16:30.081Z,100188.53
2022-11-03T12:18:49.346Z,100184.22
2022-11-03T12:20:52.413Z,100178.25
2022-11-03T12:22:54.366Z,100178.16
2022-11-03T12:24:57.619Z,100177.88
2022-11-03T12:27:03.423Z,100171.50
2022-11-03T12:29:06.157Z,100163.84
2022-11-03T12:31:08.661Z,100160.25
2022-11-03T12:33:11.004Z,100162.19
2022-11-03T12:35:15.504Z,100163.94
2022-11-03T12:37:17.906Z,100154.72
2022-11-03T12:39:20.226Z,100153.81
2022-11-03T12:45:15.831Z,100154.88
2022-11-03T12:47:21.328Z,100145.69
2022-11-03T12:49:23.759Z,100144.72
2022-11-03T12:51:25.844Z,100145.22
2022-11-03T12:53:28.256Z,100140.28
2022-11-03T12:55:30.773Z,100135.72
2022-11-03T12:57:33.110Z,100140.22
2022-11-03T12:59:35.288Z,100129.13
2022-11-03T13:01:38.225Z,100130.22
2022-11-03T13:03:41.342Z,100134.31
2022-11-03T13:05:43.518Z,100133.31
2022-11-03T13:07:45.639Z,100135.00
2022-11-03T13:09:47.896Z,100134.00
2022-11-03T13:12:08.576Z,100127.78
2022-11-03T13:14:10.753Z,100129.63
2022-11-03T13:16:12.767Z,100121.56
2022-11-03T13:18:14.828Z,100122.44
2022-11-03T13:20:17.200Z,100123.50
2022-11-03T13:22:20.055Z,100123.50
2022-11-03T13:24:22.406Z,100124.38
2022-11-03T13:26:24.719Z,100124.66
2022-11-03T13:28:26.730Z,100125.63
2022-11-03T13:30:29.011Z,100121.84
2022-11-03T13:32:33.984Z,100118.16
2022-11-03T13:34:36.203Z,100116.59
2022-11-03T13:36:38.694Z,100121.25
2022-11-03T13:38:43.359Z,100110.56
2022-11-03T13:41:06.943Z,100107.84
2022-11-03T13:43:08.413Z,100108.72
2022-11-03T13:45:10.992Z,100110.56
2022-11-03T13:47:16.089Z,100110.44
2022-11-03T13:51:41.158Z,100104.81
2022-11-03T13:56:08.539Z,100099.22
2022-11-03T14:00:33.041Z,100096.06
2022-11-03T14:04:57.187Z,100095.38
2022-11-03T14:06:59.391Z,100086.78
2022-11-03T14:09:04.291Z,100090.75
2022-11-03T14:11:24.871Z,100087.94
2022-11-03T14:13:27.199Z,100087.78
2022-11-03T14:15:29.665Z,100083.38
2022-11-03T14:17:34.012Z,100081.13
2022-11-03T14:19:42.939Z,100073.44
2022-11-03T14:21:47.670Z,100081.19
2022-11-03T14:23:49.932Z,100070.72
2022-11-03T14:26:00.488Z,100068.00
2022-11-03T14:28:18.677Z,100067.19
2022-11-03T14:30:24.879Z,100074.22
2022-11-03T14:32:27.108Z,100067.81
2022-11-03T14:34:29.404Z,100062.91
2022-11-03T14:36:31.692Z,100061.53
2022-11-03T14:38:36.216Z,100067.41
2022-11-03T14:40:57.058Z,100077.75
2022-11-03T14:42:59.370Z,100073.53
2022-11-03T14:45:01.720Z,100068.28
2022-11-03T14:47:05.435Z,100062.94
2022-11-03T14:49:07.523Z,100068.56
2022-11-03T14:51:10.305Z,100066.28
2022-11-03T14:53:12.329Z,100057.88
2022-11-03T14:55:14.446Z,100062.59
2022-11-03T14:57:17.335Z,100052.53
2022-11-03T14:59:19.364Z,100058.31
2022-11-03T15:01:21.784Z,100054.00
2022-11-03T15:03:24.108Z,100048.81
2022-11-03T15:05:44.304Z,100053.94
2022-11-03T15:07:46.266Z,100053.78
2022-11-03T15:09:48.548Z,100058.41
2022-11-03T15:11:50.325Z,100052.09
2022-11-03T15:13:52.833Z,100045.44
2022-11-03T15:15:54.955Z,100040.09
2022-11-03T15:18:02.452Z,100042.97
2022-11-03T15:20:05.370Z,100031.50
2022-11-03T15:22:07.732Z,100036.13
2022-11-03T15:26:31.786Z,100028.25
2022-11-03T15:28:33.773Z,100029.22
2022-11-03T15:34:22.879Z,100019.59
2022-11-03T15:36:25.137Z,100021.28
2022-11-03T15:38:27.196Z,100021.38
2022-11-03T15:41:32.294Z,100024.59
2022-11-03T15:43:34.304Z,100007.97
2022-11-03T15:45:36.316Z,100006.47
2022-11-03T15:47:39.214Z,100015.41
2022-11-03T15:49:41.430Z,100007.44
2022-11-03T15:51:43.344Z,100005.66
2022-11-03T15:53:45.316Z,100005.84
2022-11-03T15:55:47.434Z,100005.31
2022-11-03T15:57:50.696Z,100003.66
2022-11-03T15:59:55.308Z,100006.44
2022-11-03T16:02:08.656Z,100014.63
2022-11-03T16:04:24.687Z,100012.28
2022-11-03T16:06:40.538Z,100006.28
2022-11-03T16:08:48.996Z,100009.09
2022-11-03T16:10:57.331Z,100007.91
2022-11-03T16:13:00.280Z,100005.22
2022-11-03T16:15:02.405Z,99999.88
2022-11-03T16:17:05.454Z,100002.09
2022-11-03T16:19:07.382Z,100000.38
2022-11-03T16:21:12.148Z,99995.28
2022-11-03T16:23:14.228Z,99993.50
2022-11-03T16:34:07.418Z,99988.47
2022-11-03T16:36:09.766Z,99990.97
2022-11-03T16:38:13.631Z,99989.19
2022-11-03T16:40:19.296Z,99980.25
2022-11-03T16:42:21.792Z,99989.28
2022-11-03T16:44:23.742Z,99992.91
2022-11-03T16:46:25.822Z,99985.03
2022-11-03T16:48:27.734Z,99986.16
2022-11-03T16:50:30.095Z,99987.19
2022-11-03T16:52:31.931Z,99991.00
2022-11-03T16:54:33.932Z,99986.44
2022-11-03T16:56:36.286Z,99989.25
2022-11-03T16:58:38.337Z,99986.94
2022-11-03T17:00:40.310Z,99988.91
2022-11-03T17:03:45.271Z,99981.53
2022-11-03T17:05:47.422Z,99979.72
2022-11-03T17:07:53.683Z,99982.56
2022-11-03T17:09:56.250Z,99973.69
2022-11-03T17:11:58.303Z,99981.03
2022-11-03T17:16:02.234Z,99974.06
2022-11-03T17:18:04.324Z,99968.00
2022-11-03T17:20:06.988Z,99959.06
2022-11-03T17:22:09.255Z,99964.69
2022-11-03T17:24:11.521Z,99963.97
2022-11-03T17:26:13.858Z,99957.75
2022-11-03T17:28:18.949Z,99966.09
2022-11-03T17:30:26.312Z,99965.50
2022-11-03T17:32:37.105Z,99964.06
2022-11-03T17:34:42.188Z,99962.22
2022-11-03T17:36:44.171Z,99962.28
2022-11-03T17:38:46.193Z,99955.25
2022-11-03T17:40:48.516Z,99965.19
2022-11-03T17:42:51.218Z,99961.81
2022-11-03T17:44:55.924Z,99956.56
2022-11-03T17:46:57.954Z,99964.00
2022-11-03T17:49:00.167Z,99959.72
2022-11-03T17:51:05.327Z,99959.91
2022-11-03T17:53:13.717Z,99953.78
2022-11-03T17:55:31.386Z,99947.28
2022-11-03T17:57:33.852Z,99946.16
2022-11-03T17:59:36.169Z,99945.28
2022-11-03T18:01:38.379Z,99940.09
2022-11-03T18:03:40.782Z,99937.53
2022-11-03T18:05:42.951Z,99930.59
2022-11-03T18:07:45.028Z,99940.59
2022-11-03T18:09:47.663Z,99928.09
2022-11-03T18:12:08.661Z,99930.09
2022-11-03T18:14:10.922Z,99929.41
2022-11-03T18:16:13.226Z,99928.75
2022-11-03T18:18:18.845Z,99923.00
2022-11-03T18:20:32.148Z,99924.97
2022-11-03T18:22:34.115Z,99921.34
2022-11-03T18:24:36.020Z,99916.19
2022-11-03T18:26:38.223Z,99918.09
2022-11-03T18:28:43.328Z,99917.97
2022-11-03T18:30:48.632Z,99916.94
2022-11-03T18:32:50.714Z,99911.34
2022-11-03T18:34:52.831Z,99913.25
2022-11-03T18:36:55.425Z,99915.06
2022-11-03T18:38:58.244Z,99910.75
2022-11-03T18:41:01.058Z,99910.59
2022-11-03T18:43:11.722Z,99918.22
2022-11-03T18:45:16.272Z,99915.47
2022-11-03T18:48:20.451Z,99915.13
2022-11-03T18:50:22.714Z,99907.72
2022-11-03T18:52:24.799Z,99912.31
2022-11-03T18:54:30.435Z,99916.09
2022-11-03T18:56:35.686Z,99904.47
2022-11-03T19:02:36.446Z,99894.00
2022-11-03T19:04:38.643Z,99894.97
2022-11-03T19:06:43.202Z,99890.53
2022-11-03T19:08:48.424Z,99887.03
2022-11-03T19:10:52.346Z,99890.72
2022-11-03T19:12:57.751Z,99884.56
2022-11-03T19:15:00.550Z,99888.03
2022-11-03T19:17:22.382Z,99881.09
2022-11-03T19:19:26.515Z,99884.56
2022-11-03T19:21:28.605Z,99883.88
2022-11-03T19:23:31.094Z,99882.00
2022-11-03T19:25:33.698Z,99888.25
2022-11-03T19:27:40.596Z,99879.41
2022-11-03T19:29:44.094Z,99877.75
2022-11-03T19:31:49.111Z,99875.31
2022-11-03T19:33:54.658Z,99871.72
2022-11-03T19:35:58.396Z,99865.28
2022-11-03T19:38:07.246Z,99861.84
2022-11-03T19:40:14.963Z,99861.84
2022-11-03T19:42:37.005Z,99859.19
2022-11-03T19:44:39.393Z,99854.75
2022-11-03T19:46:44.789Z,99853.00
2022-11-03T19:48:47.113Z,99849.56
2022-11-03T19:50:49.476Z,99859.91
2022-11-03T19:53:06.498Z,99851.03
2022-11-03T19:55:14.062Z,99857.34
2022-11-03T19:57:22.716Z,99849.56
2022-11-03T19:59:24.813Z,99845.31
2022-11-03T20:01:27.397Z,99839.94
2022-11-03T20:03:29.569Z,99840.66
2022-11-03T20:05:32.080Z,99841.47
2022-11-03T20:07:34.172Z,99843.19
2022-11-03T20:09:37.305Z,99842.56
2022-11-03T20:11:39.277Z,99834.03
2022-11-03T20:13:43.338Z,99830.03
2022-11-03T20:15:45.709Z,99825.19
2022-11-03T20:17:49.101Z,99822.63
2022-11-03T20:19:53.408Z,99817.50
2022-11-03T20:21:55.762Z,99827.63
2022-11-03T20:23:58.837Z,99824.97
2022-11-03T20:26:02.598Z,99824.75
2022-11-03T20:28:19.159Z,99813.09
2022-11-03T20:30:23.439Z,99816.97
2022-11-03T20:32:25.676Z,99817.78
2022-11-03T20:34:28.010Z,99802.81
2022-11-03T20:36:33.515Z,99800.56
2022-11-03T20:38:36.850Z,99796.44
2022-11-03T20:40:39.969Z,99788.53
2022-11-03T20:42:43.306Z,99788.88
2022-11-03T20:44:45.361Z,99783.19
2022-11-03T20:46:47.657Z,99777.72
2022-11-03T20:48:50.321Z,99772.72
2022-11-03T20:50:54.185Z,99765.69
2022-11-03T20:52:59.435Z,99765.81
2022-11-03T20:55:02.183Z,99767.94
2022-11-03T20:57:06.939Z,99756.31
2022-11-03T21:01:30.571Z,99756.75
2022-11-03T21:05:55.367Z,99750.09
2022-11-03T21:07:58.036Z,99742.13
2022-11-03T21:10:00.410Z,99745.00
2022-11-03T21:12:03.004Z,99747.78
2022-11-03T21:14:19.646Z,99741.03
2022-11-03T21:16:41.591Z,99738.78
2022-11-03T21:19:02.707Z,99725.44
2022-11-03T21:21:10.884Z,99735.13
2022-11-03T21:23:22.577Z,99727.16
2022-11-03T21:25:25.433Z,99721.38
2022-11-03T21:27:27.766Z,99724.88
2022-11-03T21:31:52.111Z,99723.66
2022-11-03T21:33:54.306Z,99722.59
2022-11-03T21:35:58.649Z,99713.66
2022-11-03T21:38:01.874Z,99711.16
2022-11-03T21:40:04.290Z,99710.28
2022-11-03T21:42:24.708Z,99704.88
2022-11-03T21:44:27.152Z,99700.38
2022-11-03T21:46:29.640Z,99699.56
2022-11-03T21:48:50.733Z,99692.56
2022-11-03T21:50:52.882Z,99685.81
2022-11-03T21:52:55.453Z,99690.50
2022-11-03T21:55:05.264Z,99675.75
2022-11-03T21:57:09.247Z,99683.19
2022-11-03T21:59:11.727Z,99672.84
2022-11-03T22:01:14.279Z,99671.16
2022-11-03T22:03:16.719Z,99658.53
2022-11-03T22:05:18.814Z,99660.00
2022-11-03T22:07:21.868Z,99662.53
2022-11-03T22:09:25.132Z,99670.56
2022-11-03T22:11:27.305Z,99658.09
2022-11-03T22:13:29.446Z,99661.78
2022-11-03T22:18:42.364Z,99651.53
2022-11-03T22:21:03.272Z,99651.91
2022-11-03T22:23:24.112Z,99644.00
2022-11-03T22:25:45.035Z,99647.66
2022-11-03T22:27:47.636Z,99642.25
2022-11-03T22:30:59.630Z,99636.25
2022-11-03T22:33:02.115Z,99623.91
2022-11-03T22:35:23.605Z,99622.28
2022-11-03T22:37:25.953Z,99617.81
2022-11-03T22:39:46.508Z,99611.41
2022-11-03T22:42:07.323Z,99610.59
2022-11-03T22:44:28.291Z,99618.88
2022-11-03T22:46:31.049Z,99617.31
2022-11-03T22:48:34.018Z,99617.50
2022-11-03T22:50:36.272Z,99621.84
2022-11-03T22:52:38.433Z,99623.66
2022-11-03T22:54:40.584Z,99618.31
2022-11-03T22:56:42.966Z,99618.97
2022-11-03T22:58:45.538Z,99612.47
2022-11-03T23:00:50.618Z,99616.16
2022-11-03T23:02:53.983Z,99602.84
2022-11-03T23:04:55.974Z,99604.44
2022-11-03T23:06:57.950Z,99601.59
2022-11-03T23:09:00.949Z,99590.50
2022-11-03T23:11:08.925Z,99599.59
2022-11-03T23:13:11.375Z,99600.13
2022-11-03T23:15:32.205Z,99587.22
2022-11-03T23:17:52.864Z,99588.81
2022-11-03T23:20:13.671Z,99582.16
2022-11-03T23:22:15.983Z,99575.19
2022-11-03T23:24:40.582Z,99570.00
2022-11-03T23:26:46.886Z,99562.97
2022-11-03T23:28:49.355Z,99562.13
2022-11-03T23:30:56.845Z,99555.06
2022-11-03T23:33:00.733Z,99560.34
2022-11-03T23:35:04.785Z,99548.16
2022-11-03T23:37:06.891Z,99546.47
2022-11-03T23:39:33.863Z,99545.78
2022-11-03T23:41:35.834Z,99550.19
2022-11-03T23:43:38.427Z,99551.97
2022-11-03T23:45:58.760Z,99547.63
2022-11-03T23:51:48.222Z,99543.34
2022-11-03T23:53:51.353Z,99539.88
2022-11-03T23:56:12.310Z,99540.75
2022-11-03T23:58:20.342Z,99530.19
